Time;durP1;ratioP1;P1;durP2;ratioP2;P2;SDS_P1;SDS_P2;PMS_P1;PMS_P2;Temp;Humidity;BMP_temperature;BMP_pressure;BME280_temperature;BME280_humidity;BME280_pressure;Samples;Min_cycle;Max_cycle;Signal;HPM_P1;HPM_P2
2023/06/20 00:00:09;;;;;;;15.40;13.87;;;;;;;22.97;82.07;101069.38;5208157;28;20037;-68
2023/06/20 00:02:41;;;;;;;;;;;;;;;23.60;75.59;101069.69;5214329;28;20029;-68
2023/06/20 00:05:12;;;;;;;15.23;13.07;;;;;;;22.98;80.51;101073.69;5210608;28;19966;-67
2023/06/20 00:07:43;;;;;;;14.90;13.40;;;;;;;22.95;80.14;101066.91;5210286;28;20380;-67
2023/06/20 00:10:14;;;;;;;14.50;13.00;;;;;;;22.90;80.66;101064.00;5207267;28;20479;-67
2023/06/20 00:12:46;;;;;;;14.60;12.10;;;;;;;22.95;80.27;101064.22;5208730;28;20402;-67
2023/06/20 00:15:25;;;;;;;12.70;11.40;;;;;;;22.85;81.25;101066.47;5214230;28;20072;-67
2023/06/20 00:18:00;;;;;;;13.00;11.48;;;;;;;22.74;82.36;101059.88;5207058;28;20049;-67
2023/06/20 00:20:31;;;;;;;12.88;11.68;;;;;;;22.74;84.49;101056.41;5211796;28;20030;-68
2023/06/20 00:23:03;;;;;;;13.40;12.10;;;;;;;22.81;81.76;101054.56;5206774;28;20033;-68
2023/06/20 00:25:34;;;;;;;14.57;11.40;;;;;;;22.69;82.56;101057.03;5211141;28;20041;-67
2023/06/20 00:28:06;;;;;;;14.60;11.77;;;;;;;22.70;82.76;101056.00;5216396;28;20053;-67
2023/06/20 00:30:37;;;;;;;13.60;11.07;;;;;;;22.68;82.18;101051.88;5212171;28;20052;-68
2023/06/20 00:33:08;;;;;;;13.13;11.33;;;;;;;22.64;82.16;101053.31;5211696;28;20067;-67
2023/06/20 00:35:40;;;;;;;12.37;11.13;;;;;;;22.64;81.87;101053.31;5205799;28;20033;-67
2023/06/20 00:38:11;;;;;;;11.97;10.73;;;;;;;22.68;82.56;101057.22;5214068;28;20034;-67
2023/06/20 00:40:42;;;;;;;12.17;10.87;;;;;;;22.67;82.46;101052.91;5215497;28;20025;-67
2023/06/20 00:43:14;;;;;;;14.87;11.30;;;;;;;22.69;82.96;101048.16;5212741;28;20052;-67
2023/06/20 00:45:45;;;;;;;13.87;11.20;;;;;;;22.70;81.53;101056.00;5211943;28;20041;-67
2023/06/20 00:48:17;;;;;;;11.87;10.50;;;;;;;22.67;82.05;101052.91;5214122;28;20033;-67
2023/06/20 00:50:51;;;;;;;12.30;11.00;;;;;;;22.72;81.55;101042.41;5213594;28;20025;-67
2023/06/20 00:53:23;;;;;;;12.15;10.93;;;;;;;22.61;82.85;101049.19;5215502;28;20495;-67
2023/06/20 00:55:55;;;;;;;12.03;10.83;;;;;;;22.59;82.09;101052.06;5210719;28;20061;-67
2023/06/20 00:58:26;;;;;;;13.03;11.67;;;;;;;22.60;81.30;101050.22;5219464;28;20086;-68
2023/06/20 01:00:57;;;;;;;12.37;11.17;;;;;;;22.55;81.23;101044.69;5211301;28;20026;-67
2023/06/20 01:03:29;;;;;;;13.33;11.70;;;;;;;22.57;80.75;101046.09;5217389;28;20591;-68
2023/06/20 01:06:22;;;;;;;13.23;10.97;;;;;;;22.57;82.14;101038.09;5218162;28;20073;-68
2023/06/20 01:09:08;;;;;;;13.00;11.50;;;;;;;22.57;81.27;101043.44;5213940;28;20506;-69
2023/06/20 01:12:16;;;;;;;12.32;11.02;;;;;;;22.83;79.62;101037.28;5222479;28;20040;-69
2023/06/20 01:14:59;;;;;;;12.63;10.95;;;;;;;22.67;81.92;101029.69;5217093;28;20092;-67
2023/06/20 01:17:39;;;;;;;11.77;10.57;;;;;;;22.64;82.18;101034.63;5219050;28;20018;-69
2023/06/20 01:20:19;;;;;;;12.57;11.27;;;;;;;22.69;80.93;101038.31;5209101;28;20041;-68
2023/06/20 01:23:02;;;;;;;11.98;10.52;;;;;;;22.61;80.77;101027.00;5221867;28;20037;-69
2023/06/20 01:26:07;;;;;;;13.40;11.68;;;;;;;22.75;79.64;101028.66;5212311;28;20037;-69
2023/06/20 01:28:51;;;;;;;13.30;11.32;;;;;;;22.60;81.02;101028.84;5208765;28;20030;-67
2023/06/20 01:31:29;;;;;;;13.40;11.77;;;;;;;22.45;81.39;101023.72;5211994;28;20500;-66
2023/06/20 01:34:13;;;;;;;13.82;11.48;;;;;;;22.56;81.09;101031.13;5215753;28;20021;-69
2023/06/20 01:36:52;;;;;;;13.95;11.05;;;;;;;22.50;80.99;101017.75;5219330;28;20071;-68
2023/06/20 01:39:31;;;;;;;12.68;11.48;;;;;;;22.44;80.82;101021.25;5205052;28;20499;-68
2023/06/20 01:42:04;;;;;;;14.10;11.45;;;;;;;22.37;80.02;101013.22;5216675;28;20057;-68
2023/06/20 01:44:36;;;;;;;;;;;;;;;23.10;74.33;101015.09;5216926;28;20046;-68
2023/06/20 01:47:11;;;;;;;12.73;11.43;;;;;;;22.51;79.54;100998.88;5211045;28;19925;-68
2023/06/20 01:49:43;;;;;;;13.50;12.10;;;;;;;22.34;78.57;101001.09;5209171;28;20035;-67
2023/06/20 01:52:16;;;;;;;13.13;11.77;;;;;;;22.38;79.35;101004.19;5216109;28;20456;-67
2023/06/20 01:54:49;;;;;;;12.70;11.43;;;;;;;22.44;79.41;101010.56;5210718;28;20555;-68
2023/06/20 01:57:21;;;;;;;14.88;11.63;;;;;;;22.31;79.68;100995.34;5214228;28;20040;-67
2023/06/20 01:59:53;;;;;;;14.27;11.82;;;;;;;22.39;79.59;101002.34;5210461;28;20035;-67
2023/06/20 02:02:28;;;;;;;14.02;12.07;;;;;;;22.44;79.34;101007.91;5201576;28;20034;-68
2023/06/20 02:05:01;;;;;;;13.25;11.88;;;;;;;22.37;79.29;100999.06;5215754;28;20525;-67
2023/06/20 02:07:35;;;;;;;12.38;11.18;;;;;;;22.38;78.85;100998.84;5212395;28;20038;-67
2023/06/20 02:10:08;;;;;;;12.90;11.55;;;;;;;22.31;78.61;100996.19;5217568;28;20379;-67
2023/06/20 02:12:43;;;;;;;12.88;11.68;;;;;;;22.34;78.08;100986.94;5217119;28;20056;-67
2023/06/20 02:15:16;;;;;;;13.93;12.48;;;;;;;22.31;78.58;100995.34;5213360;28;20033;-68
2023/06/20 02:17:48;;;;;;;14.90;11.90;;;;;;;22.26;77.91;100997.81;5212457;28;20026;-67
2023/06/20 02:20:20;;;;;;;13.57;12.03;;;;;;;22.27;77.76;100994.94;5210485;28;20041;-68
2023/06/20 02:22:52;;;;;;;13.03;11.70;;;;;;;22.26;78.71;100992.47;5213773;28;20325;-67
2023/06/20 02:25:29;;;;;;;13.10;11.40;;;;;;;22.30;77.71;100988.38;5211935;28;20033;-67
2023/06/20 02:28:02;;;;;;;13.48;11.65;;;;;;;22.23;78.30;100993.69;5218791;28;20543;-67
2023/06/20 02:30:37;;;;;;;14.68;11.60;;;;;;;22.26;80.07;100993.28;5216124;28;20130;-67
2023/06/20 02:33:10;;;;;;;13.35;12.00;;;;;;;22.25;82.00;100997.00;5212658;28;20394;-67
2023/06/20 02:35:42;;;;;;;13.25;11.93;;;;;;;22.16;81.82;100989.38;5211154;28;20033;-67
2023/06/20 02:38:14;;;;;;;13.88;11.50;;;;;;;22.19;81.18;101000.47;5213542;28;20033;-67
2023/06/20 02:40:45;;;;;;;12.97;11.73;;;;;;;22.19;81.06;100996.97;5218724;28;20501;-67
2023/06/20 02:43:16;;;;;;;15.83;12.13;;;;;;;22.11;81.38;100995.28;5219041;28;20050;-67
2023/06/20 02:45:54;;;;;;;12.77;11.47;;;;;;;22.19;80.41;100999.66;5219220;28;20033;-67
2023/06/20 02:48:41;;;;;;;11.85;10.57;;;;;;;22.11;81.18;100996.13;5219848;28;20497;-68
2023/06/20 02:51:21;;;;;;;12.75;11.45;;;;;;;22.21;79.26;100995.75;5198711;28;20454;-67
2023/06/20 02:54:02;;;;;;;12.88;11.60;;;;;;;22.04;81.78;100991.78;5214773;28;20440;-68
2023/06/20 02:56:36;;;;;;;13.05;11.18;;;;;;;22.05;80.36;100990.78;5210804;28;20059;-67
2023/06/20 02:59:10;;;;;;;14.77;12.15;;;;;;;22.07;79.19;100996.72;5212916;28;20492;-67
2023/06/20 03:01:45;;;;;;;15.15;11.32;;;;;;;22.04;78.75;100992.59;5220477;28;20474;-69
2023/06/20 03:04:19;;;;;;;13.90;10.90;;;;;;;21.95;79.11;100990.34;5210620;28;20056;-68
2023/06/20 03:06:52;;;;;;;11.88;10.68;;;;;;;21.95;77.23;100990.34;5211621;28;20163;-69
2023/06/20 03:09:25;;;;;;;12.63;10.55;;;;;;;21.96;77.07;100981.31;5213098;28;20045;-69
2023/06/20 03:11:56;;;;;;;11.88;10.55;;;;;;;21.92;77.18;100986.22;5216715;28;20070;-69
2023/06/20 03:14:31;;;;;;;12.90;10.60;;;;;;;21.95;77.53;100977.81;5211131;28;20029;-68
2023/06/20 03:17:02;;;;;;;11.88;10.68;;;;;;;21.81;77.81;100979.63;5205567;28;20030;-68
2023/06/20 03:19:33;;;;;;;11.83;10.67;;;;;;;21.86;77.79;100971.03;5214908;28;20038;-69
2023/06/20 03:22:05;;;;;;;11.67;10.33;;;;;;;21.83;78.31;100969.59;5210451;28;20125;-65
2023/06/20 03:24:36;;;;;;;11.60;10.40;;;;;;;21.81;77.46;100974.28;5209163;28;20687;-68
2023/06/20 03:27:07;;;;;;;11.27;10.20;;;;;;;21.89;77.95;100983.94;5215937;28;20519;-68
2023/06/20 03:29:39;;;;;;;12.03;10.80;;;;;;;21.80;77.53;100987.84;5208439;28;20204;-68
2023/06/20 03:32:10;;;;;;;12.53;10.67;;;;;;;21.74;77.92;100985.97;5215735;28;20030;-69
2023/06/20 03:34:41;;;;;;;11.80;10.60;;;;;;;21.80;77.56;100988.66;5209558;28;20034;-66
2023/06/20 03:37:12;;;;;;;11.80;10.70;;;;;;;21.72;78.14;100998.69;5215705;28;20071;-68
2023/06/20 03:39:44;;;;;;;11.17;10.07;;;;;;;21.66;79.23;100996.81;5212526;28;20037;-67
2023/06/20 03:42:15;;;;;;;11.63;10.43;;;;;;;21.61;79.17;101000.06;5212779;28;20056;-67
2023/06/20 03:44:46;;;;;;;12.07;10.20;;;;;;;21.62;79.59;101007.03;5209982;28;20048;-69
2023/06/20 03:47:18;;;;;;;11.20;10.10;;;;;;;21.57;80.21;101012.16;5208654;28;20080;-68
2023/06/20 03:49:49;;;;;;;14.07;10.60;;;;;;;21.54;79.90;101016.03;5208771;28;20048;-69
2023/06/20 03:52:20;;;;;;;12.13;9.97;;;;;;;21.53;80.10;101025.06;5210872;28;20033;-67
2023/06/20 03:54:51;;;;;;;12.80;10.90;;;;;;;21.58;80.27;101019.13;5213187;28;20171;-68
2023/06/20 03:57:23;;;;;;;13.50;11.63;;;;;;;21.50;80.61;101024.63;5216812;28;20113;-66
2023/06/20 03:59:54;;;;;;;11.93;10.67;;;;;;;21.51;80.76;101019.09;5211033;28;20040;-70
2023/06/20 04:02:25;;;;;;;11.93;10.20;;;;;;;21.44;82.36;101028.91;5216264;28;20029;-68
2023/06/20 04:04:57;;;;;;;12.73;11.07;;;;;;;21.47;81.86;101041.00;5205260;28;20094;-66
2023/06/20 04:07:31;;;;;;;10.87;9.77;;;;;;;21.44;82.37;101031.59;5211712;28;20026;-68
2023/06/20 04:10:03;;;;;;;12.80;11.60;;;;;;;21.34;84.74;101031.09;5209891;28;20541;-68
2023/06/20 04:12:34;;;;;;;11.67;10.50;;;;;;;21.42;84.52;101022.94;5214981;28;20113;-68
2023/06/20 04:15:06;;;;;;;13.10;11.30;;;;;;;21.35;86.13;101028.22;5216730;28;20053;-68
2023/06/20 04:17:40;;;;;;;12.32;10.82;;;;;;;21.32;87.45;101020.59;5210180;28;20041;-66
2023/06/20 04:20:12;;;;;;;11.65;10.50;;;;;;;21.35;86.11;101019.41;5218919;28;20486;-68
2023/06/20 04:22:46;;;;;;;15.32;10.98;;;;;;;21.45;84.18;101011.91;5210485;28;20034;-67
2023/06/20 04:25:17;;;;;;;12.70;11.13;;;;;;;21.42;85.88;101008.81;5213297;28;20059;-68
2023/06/20 04:27:53;;;;;;;13.47;11.27;;;;;;;21.48;85.13;101000.00;5192398;28;20428;-69
2023/06/20 04:30:24;;;;;;;12.23;11.02;;;;;;;21.45;86.67;101000.41;5214258;28;20083;-69
2023/06/20 04:32:56;;;;;;;14.27;10.83;;;;;;;21.55;85.62;101004.34;5211812;28;20402;-68
2023/06/20 04:35:27;;;;;;;12.77;11.50;;;;;;;21.63;84.88;100998.03;5216488;28;20065;-68
2023/06/20 04:38:01;;;;;;;12.93;11.47;;;;;;;21.66;85.82;101002.13;5214689;28;20026;-69
2023/06/20 04:40:32;;;;;;;12.48;11.30;;;;;;;21.70;87.08;101003.38;5213741;28;20026;-70
2023/06/20 04:43:03;;;;;;;12.27;10.90;;;;;;;21.81;88.28;101000.13;5216067;28;20517;-68
2023/06/20 04:45:38;;;;;;;12.73;11.53;;;;;;;21.89;83.54;100991.13;5239695;22;20618;-71
2023/06/20 04:48:09;;;;;;;13.23;11.82;;;;;;;21.91;83.92;100983.75;5229497;28;20029;-73
2023/06/20 04:50:41;;;;;;;14.90;11.87;;;;;;;22.02;82.94;100984.00;5300707;27;20568;-70
2023/06/20 04:53:12;;;;;;;12.73;11.53;;;;;;;22.10;82.08;100994.47;5304991;27;20040;-71
2023/06/20 04:55:43;;;;;;;12.63;11.40;;;;;;;22.22;81.36;100980.56;5234610;28;20353;-69
2023/06/20 04:58:15;;;;;;;14.07;12.67;;;;;;;22.30;81.62;100985.72;5233474;28;20040;-70
2023/06/20 05:00:48;;;;;;;11.70;10.60;;;;;;;22.41;80.89;100978.94;5238930;28;20419;-69
2023/06/20 05:03:19;;;;;;;;;;;;;;;23.01;76.63;100972.56;5232031;28;20021;-70
2023/06/20 05:05:51;;;;;;;11.52;10.43;;;;;;;22.56;80.20;100968.88;5231826;28;20402;-70
2023/06/20 05:08:23;;;;;;;12.53;10.63;;;;;;;22.65;80.91;100969.47;5237439;28;20025;-71
2023/06/20 05:10:54;;;;;;;12.47;10.40;;;;;;;22.72;81.46;100959.63;5300661;27;20302;-69
2023/06/20 05:13:25;;;;;;;10.50;9.50;;;;;;;22.92;81.34;100956.94;5237610;28;20355;-70
2023/06/20 05:15:56;;;;;;;11.53;9.13;;;;;;;23.02;83.62;100960.00;5239682;28;20123;-69
2023/06/20 05:18:28;;;;;;;12.77;9.03;;;;;;;23.18;83.59;100953.38;5236472;28;20036;-70
2023/06/20 05:20:59;;;;;;;8.73;7.83;;;;;;;23.20;82.29;100946.00;5238137;28;20025;-70
2023/06/20 05:23:31;;;;;;;11.43;7.37;;;;;;;23.43;81.75;100953.50;5235553;28;20036;-69
2023/06/20 05:26:02;;;;;;;9.53;6.57;;;;;;;23.63;82.58;100948.06;5307203;27;20076;-70
2023/06/20 05:28:33;;;;;;;5.90;5.40;;;;;;;23.68;81.20;100951.78;5238870;28;20026;-70
2023/06/20 05:31:04;;;;;;;5.97;5.17;;;;;;;23.81;81.20;100944.72;5236819;28;20032;-70
2023/06/20 05:33:36;;;;;;;7.47;4.90;;;;;;;23.83;80.09;100940.78;5236734;28;20038;-69
2023/06/20 05:36:07;;;;;;;7.23;5.03;;;;;;;23.87;81.55;100938.50;5232348;28;20033;-69
2023/06/20 05:38:38;;;;;;;5.10;4.60;;;;;;;23.95;81.34;100940.94;5239218;27;20491;-70
2023/06/20 05:41:14;;;;;;;4.37;3.97;;;;;;;24.00;81.26;100941.91;5237839;28;20035;-71
2023/06/20 05:43:45;;;;;;;5.10;4.13;;;;;;;24.03;82.33;100936.13;5238055;28;20788;-69
2023/06/20 05:46:16;;;;;;;5.97;4.63;;;;;;;24.15;80.50;100940.78;5238026;28;20055;-69
2023/06/20 05:48:48;;;;;;;5.43;4.57;;;;;;;24.21;80.33;100940.72;5236091;28;20112;-69
2023/06/20 05:51:19;;;;;;;6.40;4.90;;;;;;;24.26;79.90;100945.44;5238183;28;20029;-71
2023/06/20 05:53:50;;;;;;;6.37;4.30;;;;;;;24.27;79.23;100939.84;5236276;28;20381;-69
2023/06/20 05:56:21;;;;;;;6.17;5.27;;;;;;;24.28;79.17;100948.69;5236633;28;20029;-69
2023/06/20 05:58:53;;;;;;;8.13;5.17;;;;;;;24.32;78.42;100955.28;5245640;28;20452;-70
2023/06/20 06:01:24;;;;;;;7.70;4.67;;;;;;;24.21;78.83;100951.44;5239119;28;20087;-70
2023/06/20 06:03:55;;;;;;;6.57;4.97;;;;;;;24.31;78.87;100969.69;5239339;28;20033;-69
2023/06/20 06:06:27;;;;;;;7.87;4.53;;;;;;;24.31;79.26;100961.66;5234234;28;20033;-69
2023/06/20 06:08:58;;;;;;;4.80;4.40;;;;;;;24.28;79.78;100970.97;5236142;28;20241;-69
2023/06/20 06:11:29;;;;;;;4.87;4.33;;;;;;;24.25;79.94;100975.94;5234313;28;20047;-69
2023/06/20 06:14:01;;;;;;;5.43;3.93;;;;;;;24.18;81.12;100975.16;5241325;28;20035;-69
2023/06/20 06:16:33;;;;;;;5.07;4.40;;;;;;;24.31;81.89;100968.88;5239918;28;20017;-70
2023/06/20 06:19:04;;;;;;;5.10;4.60;;;;;;;24.35;80.93;100973.56;5240128;28;20529;-70
2023/06/20 06:21:35;;;;;;;5.30;4.80;;;;;;;24.46;81.07;100966.72;5236975;28;20074;-71
2023/06/20 06:24:08;;;;;;;5.30;4.57;;;;;;;24.49;79.83;100959.06;5239204;27;20068;-69
2023/06/20 06:26:40;;;;;;;6.80;4.95;;;;;;;24.59;79.27;100957.78;5240378;28;20026;-70
2023/06/20 06:29:11;;;;;;;5.57;4.80;;;;;;;24.65;79.54;100955.00;5239126;28;20032;-70
2023/06/20 06:31:43;;;;;;;7.10;4.77;;;;;;;24.69;79.14;100964.25;5236355;28;20021;-70
2023/06/20 06:34:17;;;;;;;5.73;4.60;;;;;;;24.73;78.74;100965.44;5237248;28;20112;-71
2023/06/20 06:36:49;;;;;;;6.00;4.85;;;;;;;24.78;78.19;100966.66;5236372;28;20505;-70
2023/06/20 06:39:21;;;;;;;6.35;5.22;;;;;;;24.96;77.38;100972.00;5235801;28;20033;-71
2023/06/20 06:41:52;;;;;;;5.73;5.23;;;;;;;24.97;77.38;100968.31;5240351;27;20370;-70
2023/06/20 06:44:23;;;;;;;7.30;5.47;;;;;;;25.00;77.37;100962.47;5237011;28;20037;-70
2023/06/20 06:46:54;;;;;;;6.07;5.50;;;;;;;25.12;78.18;100962.63;5239232;28;20056;-71
2023/06/20 06:49:27;;;;;;;5.88;5.13;;;;;;;25.13;76.78;100959.72;5239497;28;20772;-69
2023/06/20 06:51:58;;;;;;;6.03;4.77;;;;;;;25.31;76.04;100952.72;5236491;28;20030;-70
2023/06/20 06:54:30;;;;;;;6.13;5.03;;;;;;;25.39;75.83;100955.91;5232918;28;20503;-70
2023/06/20 06:57:01;;;;;;;4.83;4.37;;;;;;;25.45;75.71;100964.88;5234359;28;20429;-70
2023/06/20 06:59:32;;;;;;;7.37;4.60;;;;;;;25.56;74.05;100963.31;5242185;28;20024;-70
2023/06/20 07:02:05;;;;;;;6.13;4.70;;;;;;;25.60;73.85;100961.81;5234779;28;20061;-71
2023/06/20 07:04:36;;;;;;;5.97;4.80;;;;;;;25.68;73.06;100965.03;5233792;27;20037;-70
2023/06/20 07:07:07;;;;;;;5.93;4.53;;;;;;;25.84;73.80;100960.09;5238746;28;20037;-71
2023/06/20 07:09:39;;;;;;;5.40;4.87;;;;;;;25.93;71.84;100951.47;5231319;28;20112;-70
2023/06/20 07:12:10;;;;;;;6.70;6.00;;;;;;;25.83;70.91;100947.69;5239608;28;20028;-70
2023/06/20 07:14:42;;;;;;;7.13;5.63;;;;;;;26.15;71.75;100942.91;5236726;28;20029;-70
2023/06/20 07:17:13;;;;;;;6.50;5.83;;;;;;;26.26;69.22;100952.84;5230336;28;20047;-71
2023/06/20 07:19:44;;;;;;;8.23;5.90;;;;;;;26.34;67.64;100946.31;5236564;28;20074;-70
2023/06/20 07:22:16;;;;;;;7.13;6.23;;;;;;;26.45;68.26;100937.44;5237459;28;20039;-71
2023/06/20 07:24:47;;;;;;;7.77;5.77;;;;;;;26.60;66.83;100947.75;5233248;28;20034;-71
2023/06/20 07:27:18;;;;;;;6.80;5.80;;;;;;;26.71;67.11;100946.94;5230851;28;20033;-70
2023/06/20 07:29:49;;;;;;;6.43;5.53;;;;;;;26.79;66.49;100943.06;5227212;28;20086;-72
2023/06/20 07:32:21;;;;;;;6.63;5.33;;;;;;;26.83;64.01;100933.50;5231373;28;20041;-71
2023/06/20 07:34:52;;;;;;;5.80;4.90;;;;;;;26.82;64.09;100935.38;5232497;27;20033;-70
2023/06/20 07:37:23;;;;;;;6.13;5.57;;;;;;;27.03;64.87;100925.84;5229541;28;20037;-70
2023/06/20 07:39:55;;;;;;;5.83;4.77;;;;;;;27.05;61.85;100936.34;5236565;28;20044;-72
2023/06/20 07:42:26;;;;;;;6.73;5.27;;;;;;;27.15;62.05;100929.34;5239528;28;20053;-71
2023/06/20 07:44:58;;;;;;;5.53;4.93;;;;;;;27.22;61.78;100934.59;5241016;28;20047;-70
2023/06/20 07:47:29;;;;;;;5.88;5.30;;;;;;;27.23;62.59;100932.72;5234494;28;20129;-71
2023/06/20 07:50:00;;;;;;;5.63;5.10;;;;;;;27.39;61.40;100937.38;5231757;28;20040;-72
2023/06/20 07:52:33;;;;;;;6.40;5.60;;;;;;;27.52;60.63;100941.63;5239337;28;20040;-71
2023/06/20 07:55:04;;;;;;;6.68;5.20;;;;;;;27.61;60.16;100946.38;5236373;28;20397;-71
2023/06/20 07:57:35;;;;;;;4.40;4.00;;;;;;;27.65;59.21;100938.63;5234078;28;20071;-72
2023/06/20 08:00:11;;;;;;;5.97;4.30;;;;;;;27.79;59.02;100950.78;5234683;28;20036;-70
2023/06/20 08:02:42;;;;;;;5.13;4.03;;;;;;;27.86;59.62;100953.34;5232046;28;20045;-72
2023/06/20 08:05:13;;;;;;;6.67;4.83;;;;;;;27.87;58.00;100942.31;5301178;27;20090;-71
2023/06/20 08:07:45;;;;;;;5.00;4.50;;;;;;;27.95;58.33;100938.41;5235802;28;20074;-71
2023/06/20 08:10:17;;;;;;;4.80;4.40;;;;;;;27.88;58.09;100925.13;5238835;27;20134;-72
2023/06/20 08:12:48;;;;;;;5.70;4.80;;;;;;;28.04;58.41;100938.84;5237953;28;20036;-71
2023/06/20 08:15:19;;;;;;;5.80;4.70;;;;;;;28.20;58.19;100942.59;5239931;28;20034;-71
2023/06/20 08:17:50;;;;;;;6.03;5.10;;;;;;;28.08;58.30;100931.91;5237392;28;20106;-71
2023/06/20 08:20:22;;;;;;;6.27;5.27;;;;;;;28.28;58.70;100934.09;5238033;28;20166;-71
2023/06/20 08:22:53;;;;;;;5.67;4.63;;;;;;;28.27;57.40;100930.59;5244849;28;20043;-72
2023/06/20 08:25:24;;;;;;;6.83;4.30;;;;;;;28.54;57.49;100927.25;5243050;28;20034;-73
2023/06/20 08:27:55;;;;;;;5.13;4.27;;;;;;;28.57;55.46;100940.25;5239576;28;20330;-71
2023/06/20 08:30:27;;;;;;;4.63;4.23;;;;;;;28.62;56.31;100934.91;5234556;28;20022;-71
2023/06/20 08:32:58;;;;;;;3.70;3.17;;;;;;;28.79;53.26;100940.25;5236289;28;20117;-71
2023/06/20 08:35:29;;;;;;;4.10;3.63;;;;;;;28.72;53.67;100936.94;5245326;28;20108;-71
2023/06/20 08:38:00;;;;;;;5.13;3.73;;;;;;;28.67;54.11;100939.56;5315364;27;20017;-70
2023/06/20 08:40:33;;;;;;;5.40;3.80;;;;;;;28.68;53.67;100938.47;5243802;28;20033;-70
2023/06/20 08:43:05;;;;;;;4.47;4.05;;;;;;;28.88;53.81;100941.47;5240145;28;20036;-71
2023/06/20 08:45:37;;;;;;;4.45;4.05;;;;;;;29.04;52.77;100937.94;5237949;28;20047;-71
2023/06/20 08:48:09;;;;;;;3.40;3.10;;;;;;;29.20;51.74;100932.72;5238827;28;20106;-71
2023/06/20 08:50:40;;;;;;;3.85;3.47;;;;;;;29.26;51.46;100943.34;5235553;28;20037;-71
2023/06/20 08:53:12;;;;;;;4.63;3.77;;;;;;;29.30;51.14;100936.34;5236583;28;20089;-72
2023/06/20 08:55:44;;;;;;;5.13;3.55;;;;;;;29.41;51.55;100925.69;5236416;28;20029;-71
2023/06/20 08:58:15;;;;;;;4.57;3.63;;;;;;;29.50;52.14;100927.66;5239861;28;20030;-72
2023/06/20 09:00:48;;;;;;;5.83;3.30;;;;;;;29.47;50.42;100927.34;5239191;28;20055;-71
2023/06/20 09:03:19;;;;;;;4.38;3.60;;;;;;;29.64;50.38;100917.31;5240252;28;20104;-71
2023/06/20 09:05:51;;;;;;;3.63;3.33;;;;;;;29.88;48.55;100919.69;5241427;28;20607;-71
2023/06/20 09:08:22;;;;;;;3.90;3.60;;;;;;;29.94;48.26;100919.47;5239735;28;20518;-72
2023/06/20 09:11:11;;;;;;;3.97;3.50;;;;;;;30.14;49.31;100924.22;5242097;28;20035;-71
2023/06/20 09:13:42;;;;;;;5.22;4.10;;;;;;;29.63;48.93;100933.78;5233541;28;20679;-71
2023/06/20 09:16:13;;;;;;;4.77;3.77;;;;;;;29.55;50.80;100929.63;5236736;28;20080;-71
2023/06/20 09:18:49;;;;;;;3.43;3.10;;;;;;;29.67;50.17;100930.31;5234930;28;20542;-71
2023/06/20 09:21:20;;;;;;;4.97;3.63;;;;;;;29.86;49.27;100927.25;5236545;28;20501;-72
2023/06/20 09:24:03;;;;;;;6.83;3.73;;;;;;;30.06;48.63;100930.13;5239203;28;20039;-71
2023/06/20 09:26:34;;;;;;;5.45;3.50;;;;;;;29.87;49.33;100937.78;5242553;28;20124;-71
2023/06/20 09:29:10;;;;;;;5.10;3.23;;;;;;;30.14;49.26;100942.34;5240365;28;20025;-72
2023/06/20 09:31:45;;;;;;;4.35;3.45;;;;;;;30.10;47.99;100952.84;5239257;28;20017;-72
2023/06/20 09:34:18;;;;;;;4.50;3.67;;;;;;;30.14;48.31;100935.03;5237180;28;20029;-71
2023/06/20 09:36:50;;;;;;;4.00;3.35;;;;;;;30.32;46.73;100930.34;5243295;27;20110;-72
2023/06/20 09:39:21;;;;;;;4.47;3.73;;;;;;;30.43;47.36;100934.75;5240147;28;20221;-71
2023/06/20 09:41:54;;;;;;;3.93;3.50;;;;;;;30.41;46.45;100945.00;5235682;28;20052;-72
2023/06/20 09:44:26;;;;;;;4.45;3.15;;;;;;;30.54;46.78;100934.56;5237903;28;20512;-71
2023/06/20 09:46:57;;;;;;;5.50;3.40;;;;;;;30.51;45.62;100939.66;5232422;28;20120;-70
2023/06/20 09:49:30;;;;;;;4.17;3.30;;;;;;;30.74;45.70;100939.28;5239054;28;20745;-72
2023/06/20 09:52:14;;;;;;;5.00;2.85;;;;;;;31.03;45.61;100930.78;5242767;27;20059;-71
2023/06/20 09:54:57;;;;;;;4.82;3.08;;;;;;;31.32;44.35;100933.06;5239966;28;20029;-71
2023/06/20 09:57:38;;;;;;;5.63;3.10;;;;;;;31.08;43.76;100921.88;5233690;28;20522;-71
2023/06/20 10:00:14;;;;;;;3.60;2.80;;;;;;;31.16;43.05;100941.09;5240663;28;20064;-72
2023/06/20 10:02:47;;;;;;;5.07;2.47;;;;;;;31.01;41.84;100935.63;5242679;28;20397;-71
2023/06/20 10:05:21;;;;;;;3.22;2.50;;;;;;;30.93;41.50;100936.13;5242889;28;20029;-71
2023/06/20 10:07:57;;;;;;;4.13;2.80;;;;;;;31.16;42.78;100932.16;5237606;27;20163;-71
2023/06/20 10:10:28;;;;;;;16.63;3.63;;;;;;;31.42;42.65;100935.81;5237842;28;20029;-71
2023/06/20 10:13:00;;;;;;;4.33;2.90;;;;;;;31.35;42.64;100925.22;5240436;27;20029;-70
2023/06/20 10:15:32;;;;;;;5.50;3.00;;;;;;;31.49;42.43;100920.13;5237132;28;20036;-71
2023/06/20 10:18:17;;;;;;;5.43;2.90;;;;;;;31.77;42.58;100920.69;5234775;28;20026;-71
2023/06/20 10:20:49;;;;;;;4.38;2.90;;;;;;;31.61;41.83;100904.44;5234666;28;20021;-72
2023/06/20 10:23:29;;;;;;;4.10;2.80;;;;;;;31.90;41.10;100917.50;5232701;28;20040;-71
2023/06/20 10:26:03;;;;;;;3.60;2.17;;;;;;;31.78;41.24;100908.75;5240930;28;20029;-72
2023/06/20 10:28:38;;;;;;;4.50;1.92;;;;;;;31.68;39.77;100898.75;5240966;28;20373;-71
2023/06/20 10:31:09;;;;;;;2.50;1.85;;;;;;;31.87;39.00;100894.44;5238085;28;20037;-72
2023/06/20 10:33:45;;;;;;;3.63;1.77;;;;;;;32.14;39.07;100882.50;5237181;28;20032;-71
2023/06/20 10:36:17;;;;;;;4.22;2.22;;;;;;;31.96;39.43;100875.75;5234689;28;20120;-71
2023/06/20 10:38:51;;;;;;;3.92;1.77;;;;;;;32.10;39.31;100886.84;5239502;28;20033;-68
2023/06/20 10:41:24;;;;;;;2.75;1.73;;;;;;;32.16;38.26;100881.16;5234760;28;20036;-73
2023/06/20 10:44:00;;;;;;;2.72;1.98;;;;;;;32.06;38.41;100875.75;5237450;28;20425;-70
2023/06/20 10:46:34;;;;;;;3.40;2.20;;;;;;;32.31;38.34;100883.00;5298948;22;20061;-66
2023/06/20 10:49:08;;;;;;;3.63;2.13;;;;;;;32.40;38.28;100881.41;5309696;28;20023;-67
2023/06/20 10:51:51;;;;;;;2.78;1.80;;;;;;;32.60;37.73;100879.72;5316222;28;20034;-68
2023/06/20 10:54:22;;;;;;;3.17;1.83;;;;;;;32.44;36.25;100881.66;5314489;28;20081;-68
2023/06/20 10:56:53;;;;;;;2.80;2.00;;;;;;;32.68;37.70;100876.44;5306613;28;20024;-70
2023/06/20 10:59:24;;;;;;;3.73;1.90;;;;;;;32.66;38.15;100873.19;5306849;28;20340;-68
2023/06/20 11:01:56;;;;;;;3.47;1.90;;;;;;;32.91;36.40;100872.25;5295658;28;20032;-66
2023/06/20 11:04:27;;;;;;;4.68;2.08;;;;;;;32.94;36.47;100861.69;5303775;28;20103;-67
2023/06/20 11:07:04;;;;;;;;;;;;;;;33.83;35.52;100848.06;5307556;28;20024;-65
2023/06/20 11:09:38;;;;;;;6.18;2.05;;;;;;;33.17;35.44;100852.06;5300633;28;19916;-67
2023/06/20 11:12:09;;;;;;;2.10;1.70;;;;;;;33.23;33.66;100852.84;5299267;28;20038;-69
2023/06/20 11:14:40;;;;;;;;;;;;;;;34.19;33.53;100849.66;5302180;28;20035;-66
2023/06/20 11:17:12;;;;;;;3.87;1.60;;;;;;;33.74;33.55;100852.47;5305604;28;19946;-69
2023/06/20 11:19:43;;;;;;;;;;;;;;;34.55;34.34;100842.75;5303298;28;20365;-67
2023/06/20 11:22:17;;;;;;;6.50;2.20;;;;;;;33.79;34.38;100841.59;5305049;28;19930;-66
2023/06/20 11:24:48;;;;;;;5.15;1.83;;;;;;;33.40;35.09;100836.16;5280181;28;20085;-65
2023/06/20 11:27:19;;;;;;;;;;;;;;;34.34;34.93;100831.25;5304330;28;20455;-68
2023/06/20 11:29:50;;;;;;;2.70;1.87;;;;;;;33.52;34.00;100833.91;5295720;28;19973;-69
2023/06/20 11:32:22;;;;;;;;;;;;;;;34.56;34.11;100836.19;5304943;28;20070;-67
2023/06/20 11:35:02;;;;;;;2.80;1.83;;;;;;;33.92;32.67;100833.84;5299524;28;19912;-67
2023/06/20 11:37:34;;;;;;;3.58;2.03;;;;;;;33.95;33.59;100831.38;5304938;28;20030;-66
2023/06/20 11:40:10;;;;;;;;;;;;;;;34.93;32.29;100833.78;5304314;27;20027;-66
2023/06/20 11:42:42;;;;;;;5.53;2.00;;;;;;;34.14;32.13;100836.94;5297458;28;20052;-67
2023/06/20 11:45:13;;;;;;;;;;;;;;;35.06;31.55;100830.38;5280859;28;20767;-66